Main page
METAR-TAF:

METAR-TAF

Airports :

Kullu–Manali Airport

Kullu / Manali, India

latitude: 31-52-36N, longitude: 77-09-16E, elevation: 1089 m

Current weather observation

The report was made 56 minutes ago, at 03:00 UTC
Calm wind
Temperature 8°C
Humidity 76%
Pressure 1018 hPa
Visibility: 5000 m
haze

METAR: VIBR 010300Z 00000KT 5000 HZ NSC 08/04 Q1018

Time: 09:26 (03:56 UTC)

Forecast

The report was made 22 hours and 56 minutes ago, at 05:00 UTC
Forecast valid from 28 at 06 UTC to 28 at 15 UTC
Wind 4 kt from the Southwest
Visibility: 6000 m
Few clouds at a height of 2500 ft
Temporary
from 28 at 08 UTC to 28 at 12 UTC
Visibility: 2000 m
Few clouds at a height of 3500 ft, Cumulonimbus.
Overcast at a height of 6000 ft
mist, thunderstorm, light rain

TAF: VIBR 280500Z 2806/2815 23004KT 6000 FEW025 TEMPO 2808/2812 2000 BR -TSRA FEW035CB OVC060

Weather observations and forecasts of more than 4000 airports (METAR and TAF reports).

The available stations are represented by yellow and red dots on the map.

Hover mouse over dot to see the name of the station.

Then click to see weather observations and forecasts.

To change the map : click on the green buttons with a black cross to zoom in, on the green button with a dash to zoom out, or on the green arrows for adjacent maps.


METAR-TAF: